Custer, Kentucky
Current Conditions -  °F | °C
As of 3:58 PM on Wednesday 22 Oct 2014 (Local Time) from KFTK Reporting Station
Few Clouds Few Clouds  
Wind Chill: 59°   Ceiling: Unl
Heat Index: 59°   Visibility: 10mi
Dew Point: 42°   Wind: 7mph
Humidity: 54%   Direction: 360°N
Pressure: 30.22"   Gusts: NA
Location:  37.74°N, 86.25°W
Report Text: KFTK 222058Z 36006KT 10SM FEW040 15/06 A3022 RMK AO2A SLP237 T01490056 57010
Loading
Personal Weather Stations






























Interactive Weather Map
Tropical Storm Tracking
New forecast layout! Learn more

10-Day Weather Forecast

Advertisements
Track Severe Weather on mobile